createdAt,value
2018-07-05T00:00:14.663Z,14.70
2018-07-05T00:02:54.339Z,11.50
2018-07-05T00:05:33.987Z,13.10
2018-07-05T00:08:14.294Z,11.13
2018-07-05T00:10:53.991Z,9.70
2018-07-05T00:13:33.855Z,11.57
2018-07-05T00:16:13.595Z,11.70
2018-07-05T00:18:53.212Z,8.50
2018-07-05T00:21:33.044Z,13.67
2018-07-05T00:24:07.157Z,13.30
2018-07-05T00:26:46.798Z,12.10
2018-07-05T00:29:27.906Z,12.40
2018-07-05T00:32:07.655Z,14.60
2018-07-05T00:34:47.290Z,11.10
2018-07-05T00:37:27.146Z,8.90
2018-07-05T00:40:07.790Z,14.80
2018-07-05T00:42:48.028Z,8.70
2018-07-05T00:45:27.707Z,8.77
2018-07-05T00:48:07.523Z,10.50
2018-07-05T00:50:47.236Z,11.63
2018-07-05T00:53:26.875Z,10.80
2018-07-05T00:56:06.465Z,8.73
2018-07-05T00:58:47.785Z,8.67
2018-07-05T01:01:27.518Z,11.50
2018-07-05T01:04:07.207Z,11.63
2018-07-05T01:06:46.681Z,8.13
2018-07-05T01:09:26.172Z,10.27
2018-07-05T01:12:05.807Z,7.83
2018-07-05T01:14:45.343Z,8.47
2018-07-05T01:17:24.920Z,12.03
2018-07-05T01:20:04.472Z,10.87
2018-07-05T01:22:44.491Z,9.73
2018-07-05T01:25:24.072Z,8.80
2018-07-05T01:28:03.716Z,8.90
2018-07-05T01:30:43.862Z,10.63
2018-07-05T01:33:23.422Z,9.07
2018-07-05T01:36:03.118Z,9.07
2018-07-05T01:38:42.836Z,7.37
2018-07-05T01:41:22.411Z,7.03
2018-07-05T01:44:02.123Z,6.77
2018-07-05T01:46:42.267Z,6.53
2018-07-05T01:49:22.970Z,5.90
2018-07-05T01:52:02.539Z,8.20
2018-07-05T01:54:42.302Z,5.77
2018-07-05T01:57:22.184Z,7.17
2018-07-05T02:00:01.784Z,6.57
2018-07-05T02:02:41.405Z,5.77
2018-07-05T02:05:21.016Z,6.23
2018-07-05T02:08:01.443Z,7.87
2018-07-05T02:10:41.225Z,6.83
2018-07-05T02:13:23.126Z,8.43
2018-07-05T02:16:02.759Z,7.97
2018-07-05T02:18:42.488Z,6.43
2018-07-05T02:21:22.165Z,8.47
2018-07-05T02:24:01.924Z,13.27
2018-07-05T02:26:41.559Z,9.10
2018-07-05T02:29:21.124Z,8.53
2018-07-05T02:32:00.754Z,9.10
2018-07-05T02:34:40.461Z,8.60
2018-07-05T02:37:25.712Z,9.57
2018-07-05T02:40:05.448Z,7.03
2018-07-05T02:42:44.899Z,6.43
2018-07-05T02:45:24.692Z,8.83
2018-07-05T02:48:04.248Z,9.53
2018-07-05T02:50:43.875Z,9.43
2018-07-05T02:53:23.630Z,9.10
2018-07-05T02:56:03.410Z,15.63
2018-07-05T02:58:43.034Z,13.57
2018-07-05T03:01:22.744Z,11.10
2018-07-05T03:04:02.476Z,10.73
2018-07-05T03:06:42.183Z,8.70
2018-07-05T03:09:21.867Z,10.63
2018-07-05T03:12:01.980Z,12.03
2018-07-05T03:14:41.679Z,15.73
2018-07-05T03:17:21.372Z,12.60
2018-07-05T03:20:01.945Z,9.93
2018-07-05T03:22:41.515Z,14.27
2018-07-05T03:25:21.050Z,7.47
2018-07-05T03:28:00.722Z,7.73
2018-07-05T03:30:40.487Z,11.37
2018-07-05T03:33:20.088Z,10.33
2018-07-05T03:36:03.663Z,11.70
2018-07-05T03:38:43.959Z,9.60
2018-07-05T03:41:24.070Z,12.30
2018-07-05T03:43:57.574Z,11.87
2018-07-05T03:46:37.237Z,15.27
2018-07-05T03:49:17.035Z,15.03
2018-07-05T03:51:56.697Z,14.43
2018-07-05T03:54:36.242Z,17.20
2018-07-05T03:57:15.949Z,15.57
2018-07-05T03:59:55.523Z,14.13
2018-07-05T04:02:35.068Z,20.97
2018-07-05T04:05:14.748Z,18.17
2018-07-05T04:07:54.405Z,15.30
2018-07-05T04:10:34.444Z,16.50
2018-07-05T04:13:14.072Z,14.87
2018-07-05T04:15:54.162Z,12.67
2018-07-05T04:18:33.651Z,12.77
2018-07-05T04:21:13.694Z,9.00
2018-07-05T04:23:56.029Z,9.50
2018-07-05T04:26:35.665Z,8.80
2018-07-05T04:29:15.368Z,9.07
2018-07-05T04:31:55.056Z,11.03
2018-07-05T04:34:35.124Z,9.77
2018-07-05T04:37:14.953Z,12.53
2018-07-05T04:39:54.791Z,15.70
2018-07-05T04:42:34.339Z,15.20
2018-07-05T04:45:13.755Z,18.30
2018-07-05T04:47:53.568Z,13.77
2018-07-05T04:50:34.286Z,11.68
2018-07-05T04:53:13.815Z,7.35
2018-07-05T04:55:54.013Z,6.60
2018-07-05T04:58:33.634Z,7.12
2018-07-05T05:01:13.173Z,6.53
2018-07-05T05:03:53.881Z,7.03
2018-07-05T05:06:33.547Z,6.33
2018-07-05T05:09:13.172Z,10.43
2018-07-05T05:11:53.223Z,6.78
2018-07-05T05:14:33.204Z,4.90
2018-07-05T05:17:12.982Z,6.40
2018-07-05T05:19:52.567Z,3.67
2018-07-05T05:22:32.275Z,4.22
2018-07-05T05:25:11.878Z,3.35
2018-07-05T05:27:52.712Z,4.25
2018-07-05T05:30:32.490Z,4.45
2018-07-05T05:33:12.182Z,4.20
2018-07-05T05:35:51.777Z,4.20
2018-07-05T05:38:32.011Z,4.20
2018-07-05T05:41:12.028Z,3.55
2018-07-05T05:43:52.092Z,3.60
2018-07-05T05:46:31.888Z,6.50
2018-07-05T05:49:12.060Z,5.80
2018-07-05T05:51:51.703Z,4.78
2018-07-05T05:54:31.343Z,6.67
2018-07-05T05:57:10.879Z,3.95
2018-07-05T05:59:50.495Z,4.28
2018-07-05T06:02:30.199Z,4.20
2018-07-05T06:05:10.906Z,5.10
2018-07-05T06:07:44.633Z,5.45
2018-07-05T06:10:24.366Z,6.87
2018-07-05T06:13:04.363Z,4.80
2018-07-05T06:15:44.125Z,4.78
2018-07-05T06:18:24.430Z,4.45
2018-07-05T06:21:04.511Z,4.80
2018-07-05T06:23:44.215Z,4.00
2018-07-05T06:26:23.787Z,4.85
2018-07-05T06:29:03.888Z,4.20
2018-07-05T06:31:43.595Z,8.20
2018-07-05T06:34:23.403Z,7.30
2018-07-05T06:37:03.127Z,3.83
2018-07-05T06:39:42.884Z,4.00
2018-07-05T06:42:22.553Z,4.25
2018-07-05T06:45:02.240Z,5.25
2018-07-05T06:47:42.441Z,4.22
2018-07-05T06:50:21.959Z,3.75
2018-07-05T06:53:01.631Z,5.53
2018-07-05T06:55:41.936Z,6.90
2018-07-05T06:58:21.652Z,4.20
2018-07-05T07:01:01.616Z,3.67
2018-07-05T07:03:41.204Z,3.72
2018-07-05T07:06:20.794Z,4.20
2018-07-05T07:09:00.611Z,3.42
2018-07-05T07:11:40.390Z,3.20
2018-07-05T07:14:20.140Z,4.05
2018-07-05T07:17:00.192Z,4.53
2018-07-05T07:19:39.818Z,2.70
2018-07-05T07:22:20.728Z,4.47
2018-07-05T07:25:00.268Z,3.27
2018-07-05T07:27:40.260Z,4.12
2018-07-05T07:30:20.039Z,4.50
2018-07-05T07:32:59.673Z,5.90
2018-07-05T07:35:39.404Z,3.25
2018-07-05T07:38:18.992Z,3.22
2018-07-05T07:40:58.659Z,3.35
2018-07-05T07:43:25.912Z,4.85
2018-07-05T07:45:53.140Z,5.53
2018-07-05T07:48:20.360Z,5.00
2018-07-05T07:50:47.556Z,6.35
2018-07-05T07:53:14.806Z,6.25
2018-07-05T07:55:42.035Z,4.45
2018-07-05T07:58:09.297Z,3.65
2018-07-05T08:00:36.529Z,3.67
2018-07-05T08:03:03.725Z,3.77
2018-07-05T08:05:32.763Z,4.12
2018-07-05T08:07:59.994Z,5.08
2018-07-05T08:10:27.235Z,3.92
2018-07-05T08:12:54.481Z,3.80
2018-07-05T08:15:21.672Z,3.30
2018-07-05T08:17:49.666Z,3.40
2018-07-05T08:20:18.531Z,2.87
2018-07-05T08:22:45.771Z,5.87
2018-07-05T08:25:13.026Z,4.00
2018-07-05T08:27:40.276Z,4.70
2018-07-05T08:30:07.524Z,3.05
2018-07-05T08:32:34.791Z,6.92
2018-07-05T08:35:02.033Z,6.08
2018-07-05T08:37:30.032Z,4.00
2018-07-05T08:39:57.304Z,5.70
2018-07-05T08:42:24.527Z,3.90
2018-07-05T08:44:51.802Z,3.72
2018-07-05T08:47:19.022Z,3.50
2018-07-05T08:49:47.299Z,4.83
2018-07-05T08:52:14.501Z,6.58
2018-07-05T08:54:41.713Z,4.72
2018-07-05T08:57:09.467Z,3.87
2018-07-05T08:59:37.000Z,3.20
2018-07-05T09:02:04.215Z,5.45
2018-07-05T09:04:31.616Z,5.00
2018-07-05T09:06:58.842Z,4.12
2018-07-05T09:09:26.043Z,4.70
2018-07-05T09:11:53.914Z,2.50
2018-07-05T09:14:21.478Z,3.12
2018-07-05T09:16:48.755Z,2.95
2018-07-05T09:19:16.123Z,3.25
2018-07-05T09:21:43.331Z,2.77
2018-07-05T09:24:10.547Z,4.00
2018-07-05T09:26:37.878Z,4.42
2018-07-05T09:29:05.155Z,2.55
2018-07-05T09:31:32.436Z,4.17
2018-07-05T09:33:59.656Z,3.50
2018-07-05T09:36:26.881Z,3.33
2018-07-05T09:38:54.131Z,4.47
2018-07-05T09:41:21.355Z,4.10
2018-07-05T09:43:48.577Z,2.83
2018-07-05T09:46:15.819Z,2.90
2018-07-05T09:48:43.068Z,2.83
2018-07-05T09:51:10.356Z,4.55
2018-07-05T09:53:37.585Z,4.20
2018-07-05T09:56:05.015Z,3.50
2018-07-05T09:58:32.248Z,4.95
2018-07-05T10:00:59.447Z,4.42
2018-07-05T10:03:26.708Z,4.95
2018-07-05T10:05:53.899Z,5.85
2018-07-05T10:08:21.397Z,6.15
2018-07-05T10:10:48.847Z,5.58
2018-07-05T10:13:16.522Z,4.08
2018-07-05T10:15:43.615Z,4.30
2018-07-05T10:18:10.852Z,4.05
2018-07-05T10:20:38.055Z,4.10
2018-07-05T10:23:05.279Z,6.08
2018-07-05T10:25:33.123Z,5.80
2018-07-05T10:28:00.321Z,2.87
2018-07-05T10:30:39.913Z,5.08
2018-07-05T10:33:19.515Z,3.25
2018-07-05T10:35:46.972Z,4.03
2018-07-05T10:38:14.775Z,8.95
2018-07-05T10:40:56.425Z,6.90
2018-07-05T10:43:36.163Z,4.58
2018-07-05T10:46:16.038Z,6.55
2018-07-05T10:48:55.595Z,4.33
2018-07-05T10:51:35.115Z,5.05
2018-07-05T10:54:14.797Z,4.10
2018-07-05T10:56:54.506Z,5.08
2018-07-05T10:59:34.069Z,5.03
2018-07-05T11:02:14.039Z,4.87
2018-07-05T11:04:53.645Z,4.95
2018-07-05T11:07:33.451Z,4.78
2018-07-05T11:10:13.160Z,6.45
2018-07-05T11:12:53.150Z,4.20
2018-07-05T11:15:32.807Z,6.28
2018-07-05T11:20:56.981Z,5.62
2018-07-05T11:23:36.610Z,6.35
2018-07-05T11:26:16.413Z,6.15
2018-07-05T11:28:56.056Z,6.00
2018-07-05T11:31:35.790Z,3.77
2018-07-05T11:34:15.451Z,3.85
2018-07-05T11:36:55.122Z,3.87
2018-07-05T11:39:34.950Z,4.03
2018-07-05T11:42:14.703Z,3.65
2018-07-05T11:44:54.816Z,2.87
2018-07-05T11:47:35.088Z,2.00
2018-07-05T11:50:14.757Z,2.58
2018-07-05T11:52:54.494Z,3.50
2018-07-05T11:55:34.275Z,3.95
2018-07-05T11:58:14.089Z,4.17
2018-07-05T12:00:53.570Z,3.10
2018-07-05T12:03:33.237Z,3.62
2018-07-05T12:06:12.912Z,1.60
2018-07-05T12:08:52.757Z,2.05
2018-07-05T12:11:32.599Z,2.42
2018-07-05T12:14:12.651Z,1.80
2018-07-05T12:16:53.016Z,1.98
2018-07-05T12:19:32.656Z,7.42
2018-07-05T12:22:12.679Z,5.17
2018-07-05T12:24:54.086Z,1.92
2018-07-05T12:27:33.756Z,1.80
2018-07-05T12:30:13.766Z,2.12
2018-07-05T12:32:53.314Z,2.08
2018-07-05T12:35:33.064Z,1.85
2018-07-05T12:38:12.800Z,2.00
2018-07-05T12:40:52.425Z,1.70
2018-07-05T12:43:31.982Z,3.22
2018-07-05T12:46:12.281Z,3.22
2018-07-05T12:48:51.927Z,4.28
2018-07-05T12:51:31.664Z,2.95
2018-07-05T12:54:11.964Z,3.42
2018-07-05T12:56:51.660Z,2.33
2018-07-05T12:59:32.195Z,2.47
2018-07-05T13:02:12.525Z,7.80
2018-07-05T13:04:52.031Z,5.37
2018-07-05T13:07:31.758Z,3.30
2018-07-05T13:10:11.498Z,2.50
2018-07-05T13:12:51.430Z,4.20
2018-07-05T13:15:31.072Z,2.60
2018-07-05T13:18:10.804Z,2.60
2018-07-05T13:20:50.334Z,2.33
2018-07-05T13:23:29.887Z,2.90
2018-07-05T13:26:10.227Z,4.17
2018-07-05T13:28:49.991Z,2.55
2018-07-05T13:31:29.671Z,2.15
2018-07-05T13:34:09.139Z,2.58
2018-07-05T13:36:48.904Z,3.08
2018-07-05T13:39:28.973Z,2.37
2018-07-05T13:42:08.738Z,2.08
2018-07-05T13:44:49.230Z,5.33
2018-07-05T13:47:29.366Z,2.10
2018-07-05T13:50:08.890Z,1.98
2018-07-05T13:52:48.522Z,2.20
2018-07-05T13:55:28.111Z,2.70
2018-07-05T13:58:08.100Z,2.95
2018-07-05T14:00:47.719Z,2.58
2018-07-05T14:03:27.577Z,3.05
2018-07-05T14:06:07.134Z,3.00
2018-07-05T14:08:46.654Z,4.90
2018-07-05T14:11:26.374Z,2.40
2018-07-05T14:14:06.099Z,3.52
2018-07-05T14:16:45.760Z,3.72
2018-07-05T14:19:25.502Z,6.80
2018-07-05T14:22:05.171Z,3.08
2018-07-05T14:24:44.924Z,3.90
2018-07-05T14:27:24.459Z,3.87
2018-07-05T14:30:04.711Z,4.12
2018-07-05T14:32:44.421Z,4.28
2018-07-05T14:35:24.712Z,6.25
2018-07-05T14:38:04.200Z,4.75
2018-07-05T14:40:44.651Z,3.90
2018-07-05T14:43:24.263Z,5.62
2018-07-05T14:46:03.788Z,6.20
2018-07-05T14:48:43.533Z,4.80
2018-07-05T14:51:23.748Z,5.80
2018-07-05T14:54:03.447Z,6.33
2018-07-05T14:56:42.985Z,5.22
2018-07-05T14:59:23.350Z,3.98
2018-07-05T15:02:02.933Z,5.17
2018-07-05T15:04:42.616Z,3.92
2018-07-05T15:07:22.376Z,6.62
2018-07-05T15:10:02.122Z,4.55
2018-07-05T15:12:42.579Z,3.25
2018-07-05T15:15:22.654Z,4.40
2018-07-05T15:18:02.353Z,3.55
2018-07-05T15:20:42.009Z,3.50
2018-07-05T15:23:21.767Z,3.60
2018-07-05T15:26:01.540Z,4.37
2018-07-05T15:28:41.088Z,5.45
2018-07-05T15:31:20.772Z,3.58
2018-07-05T15:34:00.425Z,3.60
2018-07-05T15:36:40.050Z,3.10
2018-07-05T15:39:19.760Z,3.05
2018-07-05T15:41:59.548Z,3.30
2018-07-05T15:44:39.402Z,2.87
2018-07-05T15:47:19.124Z,2.62
2018-07-05T15:49:52.831Z,3.10
2018-07-05T15:52:32.600Z,3.80
2018-07-05T15:55:12.325Z,6.50
2018-07-05T15:57:51.960Z,5.05
2018-07-05T16:00:31.716Z,2.90
2018-07-05T16:03:12.508Z,2.52
2018-07-05T16:05:53.787Z,3.10
2018-07-05T16:08:33.455Z,3.90
2018-07-05T16:11:13.202Z,2.80
2018-07-05T16:13:52.896Z,2.60
2018-07-05T16:16:32.703Z,4.05
2018-07-05T16:19:12.550Z,4.50
2018-07-05T16:21:52.269Z,2.27
2018-07-05T16:24:32.017Z,2.52
2018-07-05T16:27:11.784Z,2.90
2018-07-05T16:29:51.599Z,4.37
2018-07-05T16:32:31.303Z,3.33
2018-07-05T16:35:10.842Z,2.70
2018-07-05T16:37:50.555Z,3.87
2018-07-05T16:40:30.216Z,3.05
2018-07-05T16:43:10.059Z,2.58
2018-07-05T16:45:50.708Z,3.22
2018-07-05T16:48:30.369Z,2.65
2018-07-05T16:51:10.764Z,2.85
2018-07-05T16:53:50.540Z,2.60
2018-07-05T16:56:30.261Z,2.67
2018-07-05T16:59:09.787Z,2.27
2018-07-05T17:01:49.771Z,4.42
2018-07-05T17:04:29.419Z,2.75
2018-07-05T17:07:09.215Z,2.80
2018-07-05T17:09:48.924Z,2.75
2018-07-05T17:12:28.988Z,4.72
2018-07-05T17:15:08.795Z,2.58
2018-07-05T17:17:48.857Z,3.00
2018-07-05T17:20:28.394Z,2.77
2018-07-05T17:23:08.004Z,3.50
2018-07-05T17:25:47.836Z,3.25
2018-07-05T17:28:27.731Z,4.10
2018-07-05T17:31:07.581Z,3.72
2018-07-05T17:33:47.223Z,2.50
2018-07-05T17:36:27.806Z,3.22
2018-07-05T17:39:07.577Z,2.62
2018-07-05T17:41:47.690Z,3.17
2018-07-05T17:44:27.415Z,4.12
2018-07-05T17:47:07.592Z,2.27
2018-07-05T17:49:47.294Z,2.60
2018-07-05T17:52:27.487Z,2.80
2018-07-05T17:55:07.075Z,2.67
2018-07-05T17:57:46.793Z,6.70
2018-07-05T18:00:26.476Z,3.95
2018-07-05T18:03:06.287Z,2.55
2018-07-05T18:05:45.896Z,2.35
2018-07-05T18:08:25.668Z,2.52
2018-07-05T18:11:05.319Z,3.75
2018-07-05T18:13:45.048Z,2.27
2018-07-05T18:16:25.477Z,2.98
2018-07-05T18:19:05.807Z,4.47
2018-07-05T18:21:45.375Z,2.30
2018-07-05T18:24:25.826Z,3.20
2018-07-05T18:27:05.997Z,7.90
2018-07-05T18:29:45.543Z,5.78
2018-07-05T18:32:25.216Z,2.87
2018-07-05T18:35:04.943Z,3.95
2018-07-05T18:37:45.514Z,5.05
2018-07-05T18:40:25.118Z,6.15
2018-07-05T18:43:04.677Z,5.85
2018-07-05T18:45:44.468Z,8.10
2018-07-05T18:48:24.272Z,6.80
2018-07-05T18:51:03.955Z,10.00
2018-07-05T18:53:43.784Z,10.28
2018-07-05T18:56:23.324Z,11.40
2018-07-05T18:59:02.945Z,20.52
2018-07-05T19:01:43.616Z,8.23
2018-07-05T19:04:23.226Z,7.17
2018-07-05T19:07:03.375Z,10.05
2018-07-05T19:09:43.135Z,7.03
2018-07-05T19:12:22.785Z,7.47
2018-07-05T19:15:02.495Z,6.60
2018-07-05T19:17:42.221Z,6.72
2018-07-05T19:20:21.698Z,6.47
2018-07-05T19:23:01.279Z,6.35
2018-07-05T19:25:41.601Z,5.67
2018-07-05T19:28:21.300Z,6.87
2018-07-05T19:31:00.980Z,6.17
2018-07-05T19:33:40.646Z,5.50
2018-07-05T19:36:20.423Z,5.72
2018-07-05T19:39:00.033Z,4.90
2018-07-05T19:41:39.792Z,4.28
2018-07-05T19:44:20.470Z,4.20
2018-07-05T19:47:00.370Z,3.95
2018-07-05T19:49:40.007Z,3.58
2018-07-05T19:52:20.389Z,2.95
2018-07-05T19:55:00.229Z,2.70
2018-07-05T19:57:39.800Z,3.33
2018-07-05T20:00:19.500Z,3.50
2018-07-05T20:02:59.551Z,3.85
2018-07-05T20:05:39.200Z,6.05
2018-07-05T20:08:18.987Z,5.90
2018-07-05T20:11:02.626Z,7.33
2018-07-05T20:13:42.376Z,4.80
2018-07-05T20:16:22.121Z,4.47
2018-07-05T20:19:02.069Z,7.03
2018-07-05T20:21:42.170Z,6.17
2018-07-05T20:24:22.478Z,5.15
2018-07-05T20:27:03.076Z,5.25
2018-07-05T20:29:42.885Z,4.80
2018-07-05T20:32:22.526Z,5.30
2018-07-05T20:35:02.092Z,6.72
2018-07-05T20:37:41.563Z,4.92
2018-07-05T20:40:21.122Z,5.37
2018-07-05T20:43:00.623Z,4.55
2018-07-05T20:45:40.196Z,4.00
2018-07-05T20:48:13.886Z,3.30
2018-07-05T20:50:53.761Z,3.37
2018-07-05T20:53:33.335Z,2.52
2018-07-05T20:56:13.369Z,2.72
2018-07-05T20:58:52.967Z,2.80
2018-07-05T21:01:32.584Z,2.35
2018-07-05T21:04:12.213Z,2.42
2018-07-05T21:06:52.238Z,2.00
2018-07-05T21:09:31.790Z,2.50
2018-07-05T21:12:11.491Z,2.50
2018-07-05T21:14:50.927Z,2.22
2018-07-05T21:17:31.128Z,2.50
2018-07-05T21:20:11.203Z,2.58
2018-07-05T21:22:52.484Z,2.95
2018-07-05T21:25:32.133Z,2.65
2018-07-05T21:28:11.875Z,2.40
2018-07-05T21:30:51.878Z,3.10
2018-07-05T21:33:31.339Z,3.98
2018-07-05T21:36:11.352Z,5.75
2018-07-05T21:38:51.064Z,3.17
2018-07-05T21:41:30.814Z,3.58
2018-07-05T21:44:10.443Z,2.83
2018-07-05T21:46:50.191Z,3.52
2018-07-05T21:49:30.224Z,2.70
2018-07-05T21:52:09.868Z,2.55
2018-07-05T21:54:49.601Z,2.33
2018-07-05T21:57:30.138Z,3.98
2018-07-05T22:00:10.721Z,3.12
2018-07-05T22:02:50.300Z,3.15
2018-07-05T22:05:29.828Z,2.83
2018-07-05T22:08:09.628Z,2.75
2018-07-05T22:10:49.968Z,3.20
2018-07-05T22:13:30.127Z,3.10
2018-07-05T22:16:09.729Z,3.40
2018-07-05T22:18:55.051Z,3.20
2018-07-05T22:21:39.704Z,3.47
2018-07-05T22:24:25.012Z,3.00
2018-07-05T22:27:04.810Z,3.42
2018-07-05T22:29:50.571Z,3.08
2018-07-05T22:32:30.225Z,4.00
2018-07-05T22:35:09.930Z,3.62
2018-07-05T22:37:49.676Z,4.50
2018-07-05T22:40:29.182Z,3.00
2018-07-05T22:43:08.704Z,3.22
2018-07-05T22:45:48.459Z,3.67
2018-07-05T22:48:28.300Z,3.05
2018-07-05T22:51:07.988Z,5.20
2018-07-05T22:53:47.829Z,2.77
2018-07-05T22:56:27.344Z,3.65
2018-07-05T22:59:07.047Z,5.53
2018-07-05T23:01:46.876Z,3.15
2018-07-05T23:04:26.502Z,3.55
2018-07-05T23:07:06.286Z,3.85
2018-07-05T23:09:46.083Z,3.42
2018-07-05T23:12:25.765Z,3.77
2018-07-05T23:15:05.392Z,3.60
2018-07-05T23:17:44.930Z,5.03
2018-07-05T23:20:24.629Z,3.83
2018-07-05T23:23:04.356Z,5.67
2018-07-05T23:25:44.252Z,3.58
2018-07-05T23:28:24.234Z,3.55
2018-07-05T23:31:04.794Z,6.42
2018-07-05T23:33:44.299Z,4.70
2018-07-05T23:36:24.032Z,4.00
2018-07-05T23:39:04.891Z,3.95
2018-07-05T23:41:44.603Z,4.08
2018-07-05T23:44:24.335Z,5.17
2018-07-05T23:47:04.083Z,3.65
2018-07-05T23:49:43.833Z,4.33
2018-07-05T23:52:23.527Z,3.70
2018-07-05T23:55:03.117Z,4.35
2018-07-05T23:57:42.918Z,4.33
